^^
Saratoga-Weather Station Historical Data
Daily Summary for April 7, 2020 Units:  Metric    English   Both
Daily Weekly Monthly Yearly Custom
  High: Low: Average:
Temperature: 23.6 °C 4.1 °C 13.8 °C
Dew Point: 8.9 °C 1.7 °C 4.4 °C
Humidity: 87% 28% 57%
Wind Speed: 9.7km/h 0km/h 1.2km/h
Wind Gust: 16.1km/h - -
Wind- - SE
Pressure: 1024.0 hPa 1018.6 hPa -
Precipitation: 0.0 mm    
Historical Graphs
 
 
Tabular Data for April 7, 2020
Time Temperature Dew Point Pressure Wind Wind Speed Wind Gust Humidity Rainfall Rate (Hourly) solar
00:02 7.9 °C 2.6 °C 1023.4 hPa Calm     69% 0.0 mm 0 W/m2
00:07 7.9 °C 2.6 °C 1023.7 hPa Calm     69% 0.0 mm 0 W/m2
00:12 7.9 °C 2.6 °C 1023.4 hPa Calm     69% 0.0 mm 0 W/m2
00:17 7.9 °C 2.6 °C 1023.7 hPa Calm     69% 0.0 mm 0 W/m2
00:22 7.8 °C 2.7 °C 1023.7 hPa Calm     70% 0.0 mm 0 W/m2
00:27 7.7 °C 2.6 °C 1023.7 hPa Calm     70% 0.0 mm 0 W/m2
00:32 7.7 °C 2.6 °C 1023.7 hPa Calm     70% 0.0 mm 0 W/m2
00:37 7.6 °C 2.7 °C 1023.7 hPa Calm     71% 0.0 mm 0 W/m2
00:42 7.5 °C 2.6 °C 1023.7 hPa Calm     71% 0.0 mm 0 W/m2
00:47 7.3 °C 2.4 °C 1023.7 hPa Calm     71% 0.0 mm 0 W/m2
00:52 7.3 °C 2.6 °C 1023.7 hPa Calm     72% 0.0 mm 0 W/m2
00:57 7.3 °C 2.6 °C 1023.7 hPa Calm   1.6 km/h 72% 0.0 mm 0 W/m2
01:02 7.2 °C 2.7 °C 1023.7 hPa Calm     73% 0.0 mm 0 W/m2
01:08 7.2 °C 2.7 °C 1023.7 hPa Calm     73% 0.0 mm 0 W/m2
01:13 7.1 °C 2.6 °C 1023.7 hPa Calm   1.6 km/h 73% 0.0 mm 0 W/m2
01:18 7 °C 2.5 °C 1023.7 hPa Calm     73% 0.0 mm 0 W/m2
01:23 6.9 °C 2.4 °C 1023.7 hPa Calm     73% 0.0 mm 0 W/m2
01:28 6.8 °C 2.3 °C 1023.7 hPa Calm     73% 0.0 mm 0 W/m2
01:33 6.8 °C 2.5 °C 1023.7 hPa Calm     74% 0.0 mm 0 W/m2
01:38 6.7 °C 2.4 °C 1023.7 hPa Calm     74% 0.0 mm 0 W/m2
01:43 6.7 °C 2.4 °C 1023.7 hPa Calm     74% 0.0 mm 0 W/m2
01:48 6.6 °C 2.3 °C 1023.7 hPa Calm     74% 0.0 mm 0 W/m2
01:53 6.6 °C 2.3 °C 1023.7 hPa Calm     74% 0.0 mm 0 W/m2
01:58 6.4 °C 2.1 °C 1023.7 hPa Calm     74% 0.0 mm 0 W/m2
02:03 6.3 °C 2.2 °C 1023.7 hPa Calm     75% 0.0 mm 0 W/m2
02:08 6.2 °C 2.1 °C 1023.7 hPa Calm     75% 0.0 mm 0 W/m2
02:13 6.2 °C 2.1 °C 1023.7 hPa Calm     75% 0.0 mm 0 W/m2
02:18 6 °C 2.1 °C 1023.7 hPa Calm     76% 0.0 mm 0 W/m2
02:23 5.9 °C 2.2 °C 1023.7 hPa Calm     77% 0.0 mm 0 W/m2
02:28 5.8 °C 2.1 °C 1023.7 hPa Calm     77% 0.0 mm 0 W/m2
02:33 5.8 °C 2.1 °C 1023.7 hPa Calm     77% 0.0 mm 0 W/m2
02:38 5.7 °C 2.2 °C 1023.7 hPa Calm     78% 0.0 mm 0 W/m2
02:43 5.6 °C 2.1 °C 1023.7 hPa Calm     78% 0.0 mm 0 W/m2
02:48 5.5 °C 2.1 °C 1023.7 hPa Calm     79% 0.0 mm 0 W/m2
02:53 5.5 °C 2.1 °C 1023.7 hPa Calm     79% 0.0 mm 0 W/m2
02:58 5.4 °C 2.1 °C 1023.7 hPa Calm     79% 0.0 mm 0 W/m2
03:04 5.3 °C 2 °C 1023.7 hPa Calm     79% 0.0 mm 0 W/m2
03:09 5.3 °C 2 °C 1024.0 hPa Calm     79% 0.0 mm 0 W/m2
03:14 5.3 °C 2 °C 1024.0 hPa Calm     79% 0.0 mm 0 W/m2
03:19 5.2 °C 1.9 °C 1024.0 hPa Calm     79% 0.0 mm 0 W/m2
03:24 5.2 °C 1.9 °C 1024.0 hPa Calm     79% 0.0 mm 0 W/m2
03:29 5.2 °C 2 °C 1024.0 hPa SSE 1.4 km/h 1.6 km/h 80% 0.0 mm 0 W/m2
03:34 5.2 °C 2.2 °C 1024.0 hPa SSE 1.4 km/h 3.2 km/h 81% 0.0 mm 0 W/m2
03:39 5.3 °C 2.3 °C 1024.0 hPa Calm   3.2 km/h 81% 0.0 mm 0 W/m2
03:44 5.4 °C 2.4 °C 1024.0 hPa Calm     81% 0.0 mm 0 W/m2
03:49 5.4 °C 2.2 °C 1024.0 hPa Calm   3.2 km/h 80% 0.0 mm 0 W/m2
03:54 5.5 °C 2.3 °C 1024.0 hPa Calm     80% 0.0 mm 0 W/m2
04:00 5.6 °C 2.4 °C 1024.0 hPa North 1.4 km/h 1.6 km/h 80% 0.0 mm 0 W/m2
04:05 5.6 °C 2.4 °C 1024.0 hPa Calm     80% 0.0 mm 0 W/m2
04:10 5.6 °C 2.4 °C 1024.0 hPa Calm     80% 0.0 mm 0 W/m2
04:15 5.5 °C 2.3 °C 1024.0 hPa WSW 3.2 km/h 3.2 km/h 80% 0.0 mm 0 W/m2
04:20 5.4 °C 2.2 °C 1023.7 hPa Calm     80% 0.0 mm 0 W/m2
04:25 5.4 °C 2.4 °C 1023.7 hPa WNW 1.4 km/h 1.6 km/h 81% 0.0 mm 0 W/m2
04:30 5.4 °C 2.4 °C 1023.7 hPa Calm   3.2 km/h 81% 0.0 mm 0 W/m2
04:35 5.4 °C 2.2 °C 1023.7 hPa Calm     80% 0.0 mm 0 W/m2
04:40 5.4 °C 2.2 °C 1023.7 hPa Calm   1.6 km/h 80% 0.0 mm 0 W/m2
04:45 5.3 °C 2.3 °C 1023.7 hPa Calm     81% 0.0 mm 0 W/m2
04:50 5.3 °C 2.3 °C 1023.7 hPa Calm   1.6 km/h 81% 0.0 mm 0 W/m2
04:55 5.2 °C 2.2 °C 1023.7 hPa Calm     81% 0.0 mm 0 W/m2
05:00 5.1 °C 2.1 °C 1023.4 hPa Calm     81% 0.0 mm 0 W/m2
05:05 5 °C 2 °C 1023.4 hPa Calm     81% 0.0 mm 0 W/m2
05:10 4.9 °C 1.9 °C 1023.7 hPa Calm     81% 0.0 mm 0 W/m2
05:15 4.8 °C 2 °C 1023.4 hPa Calm     82% 0.0 mm 0 W/m2
05:20 4.7 °C 1.9 °C 1023.4 hPa Calm     82% 0.0 mm 0 W/m2
05:25 4.7 °C 1.9 °C 1023.4 hPa Calm     82% 0.0 mm 0 W/m2
05:30 4.7 °C 2.1 °C 1023.4 hPa Calm     83% 0.0 mm 0 W/m2
05:35 4.6 °C 2 °C 1023.4 hPa Calm     83% 0.0 mm 0 W/m2
05:40 4.6 °C 2 °C 1023.4 hPa Calm     83% 0.0 mm 0 W/m2
05:45 4.6 °C 2 °C 1023.4 hPa Calm     83% 0.0 mm 0 W/m2
05:50 4.6 °C 2.1 °C 1023.4 hPa Calm     84% 0.0 mm 0 W/m2
05:55 4.4 °C 1.9 °C 1023.4 hPa Calm     84% 0.0 mm 0 W/m2
06:00 4.4 °C 1.9 °C 1023.4 hPa Calm     84% 0.0 mm 0 W/m2
06:05 4.3 °C 1.8 °C 1023.4 hPa Calm     84% 0.0 mm 5 W/m2
06:10 4.2 °C 1.7 °C 1023.4 hPa Calm     84% 0.0 mm 7 W/m2
06:15 4.2 °C 1.9 °C 1023.4 hPa Calm     85% 0.0 mm 9 W/m2
06:20 4.2 °C 1.9 °C 1023.4 hPa Calm     85% 0.0 mm 11 W/m2
06:25 4.1 °C 1.8 °C 1023.4 hPa Calm     85% 0.0 mm 12 W/m2
06:30 4.1 °C 1.8 °C 1023.4 hPa Calm     85% 0.0 mm 14 W/m2
06:35 4.1 °C 2 °C 1023.4 hPa Calm     86% 0.0 mm 16 W/m2
06:40 4.2 °C 2.1 °C 1023.4 hPa Calm     86% 0.0 mm 18 W/m2
06:45 4.2 °C 2.2 °C 1023.4 hPa Calm     87% 0.0 mm 19 W/m2
06:50 4.3 °C 2.3 °C 1023.4 hPa Calm     87% 0.0 mm 21 W/m2
06:55 4.4 °C 2.4 °C 1023.4 hPa Calm     87% 0.0 mm 23 W/m2
07:00 4.6 °C 2.6 °C 1023.4 hPa Calm     87% 0.0 mm 23 W/m2
07:05 4.7 °C 2.6 °C 1023.4 hPa Calm     86% 0.0 mm 25 W/m2
07:10 4.9 °C 2.8 °C 1023.4 hPa Calm     86% 0.0 mm 26 W/m2
07:15 5.1 °C 3 °C 1023.4 hPa Calm   1.6 km/h 86% 0.0 mm 26 W/m2
07:20 5.3 °C 3.1 °C 1023.4 hPa Calm     86% 0.0 mm 28 W/m2
07:25 5.7 °C 3.4 °C 1023.4 hPa Calm   1.6 km/h 85% 0.0 mm 28 W/m2
07:30 5.8 °C 3.5 °C 1023.4 hPa Calm     85% 0.0 mm 30 W/m2
07:35 6.1 °C 3.6 °C 1023.4 hPa WNW 3.2 km/h 3.2 km/h 84% 0.0 mm 30 W/m2
07:40 6.3 °C 3.6 °C 1023.4 hPa Calm     83% 0.0 mm 32 W/m2
07:45 6.5 °C 3.5 °C 1023.7 hPa Calm     81% 0.0 mm 54 W/m2
07:50 6.9 °C 3.1 °C 1023.7 hPa WNW 1.4 km/h 1.6 km/h 77% 0.0 mm 37 W/m2
07:55 7.3 °C 3.3 °C 1023.7 hPa Calm     76% 0.0 mm 232 W/m2
08:00 7.6 °C 3.3 °C 1023.7 hPa Calm     74% 0.0 mm 253 W/m2
08:05 8.2 °C 3.5 °C 1023.7 hPa Calm   1.6 km/h 72% 0.0 mm 160 W/m2
08:10 8.8 °C 3.8 °C 1023.7 hPa Calm   1.6 km/h 71% 0.0 mm 283 W/m2
08:15 9.3 °C 4.1 °C 1023.7 hPa Calm   1.6 km/h 70% 0.0 mm 292 W/m2
08:20 9.9 °C 4.3 °C 1023.7 hPa Calm     68% 0.0 mm 308 W/m2
08:25 10.3 °C 4.2 °C 1023.7 hPa NNW 3.2 km/h 3.2 km/h 66% 0.0 mm 320 W/m2
08:30 10.5 °C 4.2 °C 1023.7 hPa Calm     65% 0.0 mm 336 W/m2
08:35 10.6 °C 4.3 °C 1023.7 hPa Calm   4.8 km/h 65% 0.0 mm 348 W/m2
08:40 10.7 °C 4.2 °C 1023.7 hPa Calm   3.2 km/h 64% 0.0 mm 364 W/m2
08:45 10.9 °C 4.1 °C 1023.7 hPa NNE 3.2 km/h 4.8 km/h 63% 0.0 mm 376 W/m2
08:50 11.1 °C 4.5 °C 1023.7 hPa Calm     64% 0.0 mm 390 W/m2
08:55 11.4 °C 4.6 °C 1023.7 hPa ENE 1.4 km/h 4.8 km/h 63% 0.0 mm 404 W/m2
09:00 11.7 °C 4.7 °C 1023.7 hPa NE 1.4 km/h 3.2 km/h 62% 0.0 mm 417 W/m2
09:05 11.9 °C 4.6 °C 1023.7 hPa NE 1.4 km/h 1.6 km/h 61% 0.0 mm 432 W/m2
09:10 12.1 °C 5 °C 1023.7 hPa East 1.4 km/h 1.6 km/h 62% 0.0 mm 446 W/m2
09:15 12.2 °C 4.9 °C 1023.4 hPa Calm   3.2 km/h 61% 0.0 mm 457 W/m2
09:20 12.5 °C 4.9 °C 1023.4 hPa NNE 1.4 km/h 4.8 km/h 60% 0.0 mm 469 W/m2
09:25 12.7 °C 4.9 °C 1023.4 hPa Calm   3.2 km/h 59% 0.0 mm 482 W/m2
09:30 13.1 °C 4.5 °C 1023.4 hPa Calm   4.8 km/h 56% 0.0 mm 490 W/m2
09:35 13.4 °C 4.3 °C 1023.4 hPa NE 1.4 km/h 3.2 km/h 54% 0.0 mm 508 W/m2
09:40 13.8 °C 4.4 °C 1023.4 hPa NNE 3.2 km/h 3.2 km/h 53% 0.0 mm 520 W/m2
09:45 14 °C 4.6 °C 1023.4 hPa Calm   3.2 km/h 53% 0.0 mm 534 W/m2
09:50 14.1 °C 4.1 °C 1023.4 hPa ENE 3.2 km/h 4.8 km/h 51% 0.0 mm 545 W/m2
09:55 14.2 °C 4.2 °C 1023.4 hPa ESE 1.4 km/h 3.2 km/h 51% 0.0 mm 557 W/m2
10:00 14.4 °C 4.4 °C 1023.4 hPa East 4.7 km/h 4.8 km/h 51% 0.0 mm 568 W/m2
10:05 14.7 °C 4.4 °C 1023.4 hPa NE 3.2 km/h 3.2 km/h 50% 0.0 mm 563 W/m2
10:11 14.8 °C 4.8 °C 1023.4 hPa ESE 4.7 km/h 6.4 km/h 51% 0.0 mm 113 W/m2
10:16 14.9 °C 4.3 °C 1023.4 hPa North 1.4 km/h 3.2 km/h 49% 0.0 mm 601 W/m2
10:21 15.1 °C 5.3 °C 1023.4 hPa East 3.2 km/h 9.7 km/h 52% 0.0 mm 612 W/m2
10:26 15.3 °C 4.6 °C 1023.4 hPa ENE 1.4 km/h 4.8 km/h 49% 0.0 mm 624 W/m2
10:31 15.3 °C 4.9 °C 1023.4 hPa WSW 1.4 km/h 4.8 km/h 50% 0.0 mm 633 W/m2
10:36 15.6 °C 4.9 °C 1023.4 hPa East 1.4 km/h 6.4 km/h 49% 0.0 mm 645 W/m2
10:41 15.9 °C 5.2 °C 1023.4 hPa ESE 1.4 km/h 6.4 km/h 49% 0.0 mm 654 W/m2
10:46 16.3 °C 5.6 °C 1023.4 hPa ESE 3.2 km/h 6.4 km/h 49% 0.0 mm 666 W/m2
10:51 16.6 °C 5.8 °C 1023.4 hPa East 3.2 km/h 3.2 km/h 49% 0.0 mm 677 W/m2
10:56 16.8 °C 5.4 °C 1023.4 hPa ENE 1.4 km/h 4.8 km/h 47% 0.0 mm 684 W/m2
11:01 16.6 °C 4.9 °C 1023.4 hPa NE 6.4 km/h 6.4 km/h 46% 0.0 mm 691 W/m2
11:06 16.6 °C 5.2 °C 1023.4 hPa NNE 3.2 km/h 6.4 km/h 47% 0.0 mm 703 W/m2
11:11 16.8 °C 5.7 °C 1023.0 hPa SE 4.7 km/h 4.8 km/h 48% 0.0 mm 708 W/m2
11:16 17.2 °C 5.5 °C 1023.0 hPa East 1.4 km/h 3.2 km/h 46% 0.0 mm 719 W/m2
11:21 17.4 °C 5.3 °C 1023.0 hPa NNE 1.4 km/h 12.9 km/h 45% 0.0 mm 726 W/m2
11:26 17.5 °C 5.4 °C 1023.0 hPa ESE 1.4 km/h 4.8 km/h 45% 0.0 mm 733 W/m2
11:31 17.6 °C 5.5 °C 1023.0 hPa East 6.4 km/h 12.9 km/h 45% 0.0 mm 740 W/m2
11:36 17.6 °C 5.5 °C 1023.0 hPa ESE 6.4 km/h 6.4 km/h 45% 0.0 mm 747 W/m2
11:41 17.9 °C 5.8 °C 1023.0 hPa ESE 3.2 km/h 8 km/h 45% 0.0 mm 754 W/m2
11:46 17.9 °C 5.8 °C 1023.0 hPa ENE 1.4 km/h 6.4 km/h 45% 0.0 mm 761 W/m2
11:51 17.8 °C 6 °C 1023.0 hPa SE 3.2 km/h 6.4 km/h 46% 0.0 mm 766 W/m2
11:56 17.8 °C 5.7 °C 1023.0 hPa Calm   6.4 km/h 45% 0.0 mm 772 W/m2
12:01 17.7 °C 6.5 °C 1023.0 hPa ENE 4.7 km/h 6.4 km/h 48% 0.0 mm 775 W/m2
12:06 17.8 °C 6.3 °C 1023.0 hPa North 3.2 km/h 11.3 km/h 47% 0.0 mm 780 W/m2
12:11 18.1 °C 6 °C 1023.0 hPa Calm   6.4 km/h 45% 0.0 mm 789 W/m2
12:16 18.2 °C 5.7 °C 1023.0 hPa NNW 1.4 km/h 1.6 km/h 44% 0.0 mm 789 W/m2
12:21 18.3 °C 6.2 °C 1022.7 hPa NE 1.4 km/h 3.2 km/h 45% 0.0 mm 802 W/m2
12:26 18.8 °C 4.5 °C 1022.7 hPa NE 1.4 km/h 8 km/h 39% 0.0 mm 807 W/m2
12:31 19 °C 5.8 °C 1022.7 hPa East 6.4 km/h 8 km/h 42% 0.0 mm 810 W/m2
12:36 19.1 °C 5.9 °C 1022.7 hPa NNE 1.4 km/h 4.8 km/h 42% 0.0 mm 812 W/m2
12:41 19.2 °C 4.5 °C 1022.7 hPa SE 1.4 km/h 6.4 km/h 38% 0.0 mm 816 W/m2
12:47 19.3 °C 4.6 °C 1022.7 hPa Calm   11.3 km/h 38% 0.0 mm 824 W/m2
12:52 19.5 °C 4.8 °C 1022.7 hPa East 4.7 km/h 6.4 km/h 38% 0.0 mm 828 W/m2
12:57 19.6 °C 5.3 °C 1022.7 hPa ESE 4.7 km/h 12.9 km/h 39% 0.0 mm 817 W/m2
13:02 19.4 °C 5.1 °C 1022.4 hPa South 1.4 km/h 3.2 km/h 39% 0.0 mm 814 W/m2
13:07 19.6 °C 4.1 °C 1022.4 hPa North 3.2 km/h 11.3 km/h 36% 0.0 mm 814 W/m2
13:12 19.7 °C 4.2 °C 1022.4 hPa SSE 4.7 km/h 6.4 km/h 36% 0.0 mm 816 W/m2
13:17 19.8 °C 5.8 °C 1022.4 hPa ENE 6.4 km/h 6.4 km/h 40% 0.0 mm 817 W/m2
13:22 19.9 °C 5.5 °C 1022.4 hPa WSW 3.2 km/h 4.8 km/h 39% 0.0 mm 821 W/m2
13:27 20 °C 5.6 °C 1022.4 hPa NNE 1.4 km/h 4.8 km/h 39% 0.0 mm 816 W/m2
13:32 20.3 °C 5.5 °C 1022.4 hPa North 4.7 km/h 16.1 km/h 38% 0.0 mm 807 W/m2
13:37 20.3 °C 4.3 °C 1022.0 hPa ENE 4.7 km/h 14.5 km/h 35% 0.0 mm 830 W/m2
13:42 20.4 °C 4.4 °C 1022.0 hPa NNE 3.2 km/h 16.1 km/h 35% 0.0 mm 835 W/m2
13:47 20.4 °C 4 °C 1022.0 hPa ESE 3.2 km/h 4.8 km/h 34% 0.0 mm 831 W/m2
13:52 20.4 °C 5.6 °C 1022.0 hPa East 4.7 km/h 8 km/h 38% 0.0 mm 828 W/m2
13:57 20.5 °C 4.1 °C 1022.0 hPa NNW 3.2 km/h 4.8 km/h 34% 0.0 mm 800 W/m2
14:02 20.2 °C 3.8 °C 1022.0 hPa ESE 1.4 km/h 4.8 km/h 34% 0.0 mm 816 W/m2
14:07 20.2 °C 4.6 °C 1022.0 hPa NNE 1.4 km/h 6.4 km/h 36% 0.0 mm 817 W/m2
14:12 20.3 °C 4.3 °C 1022.0 hPa ENE 7.9 km/h 14.5 km/h 35% 0.0 mm 807 W/m2
14:17 20.6 °C 5 °C 1022.0 hPa ESE 3.2 km/h 4.8 km/h 36% 0.0 mm 821 W/m2
14:22 20.9 °C 3.6 °C 1022.0 hPa SE 3.2 km/h 11.3 km/h 32% 0.0 mm 779 W/m2
14:27 20.9 °C 3.1 °C 1021.7 hPa West 4.7 km/h 6.4 km/h 31% 0.0 mm 800 W/m2
14:32 20.7 °C 3.4 °C 1021.7 hPa Calm   4.8 km/h 32% 0.0 mm 809 W/m2
14:37 20.8 °C 5.2 °C 1021.7 hPa ENE 3.2 km/h 3.2 km/h 36% 0.0 mm 796 W/m2
14:42 21.2 °C 3.8 °C 1021.3 hPa NNW 3.2 km/h 6.4 km/h 32% 0.0 mm 795 W/m2
14:48 21.3 °C 3.5 °C 1021.3 hPa NE 4.7 km/h 6.4 km/h 31% 0.0 mm 789 W/m2
14:53 21.3 °C 3 °C 1021.3 hPa SSE 3.2 km/h 6.4 km/h 30% 0.0 mm 777 W/m2
14:58 21.2 °C 3.8 °C 1021.3 hPa ENE 1.4 km/h 9.7 km/h 32% 0.0 mm 786 W/m2
15:03 21.4 °C 3.6 °C 1021.3 hPa NNE 6.4 km/h 9.7 km/h 31% 0.0 mm 772 W/m2
15:08 21.5 °C 3.7 °C 1021.3 hPa ESE 6.4 km/h 14.5 km/h 31% 0.0 mm 779 W/m2
15:13 21.3 °C 3 °C 1021.3 hPa ENE 6.4 km/h 8 km/h 30% 0.0 mm 747 W/m2
15:18 21.3 °C 3 °C 1021.0 hPa ENE 9.7 km/h 9.7 km/h 30% 0.0 mm 719 W/m2
15:23 21.4 °C 3.6 °C 1021.0 hPa SW 3.2 km/h 6.4 km/h 31% 0.0 mm 687 W/m2
15:28 21.6 °C 4.6 °C 1021.0 hPa ENE 1.4 km/h 6.4 km/h 33% 0.0 mm 754 W/m2
15:33 21.8 °C 3.9 °C 1021.0 hPa NNE 1.4 km/h 6.4 km/h 31% 0.0 mm 715 W/m2
15:38 21.9 °C 4.5 °C 1020.7 hPa ENE 4.7 km/h 8 km/h 32% 0.0 mm 694 W/m2
15:43 21.8 °C 4.4 °C 1020.7 hPa SE 4.7 km/h 8 km/h 32% 0.0 mm 691 W/m2
15:48 21.8 °C 4.4 °C 1020.7 hPa WNW 1.4 km/h 14.5 km/h 32% 0.0 mm 675 W/m2
15:53 22 °C 4.1 °C 1020.7 hPa ENE 6.4 km/h 6.4 km/h 31% 0.0 mm 677 W/m2
15:58 22.2 °C 4.3 °C 1020.7 hPa SE 1.4 km/h 4.8 km/h 31% 0.0 mm 701 W/m2
16:03 22.3 °C 4.4 °C 1020.7 hPa East 1.4 km/h 6.4 km/h 31% 0.0 mm 679 W/m2
16:08 22.4 °C 3.5 °C 1020.7 hPa ESE 1.4 km/h 4.8 km/h 29% 0.0 mm 645 W/m2
16:13 22.4 °C 5.3 °C 1020.3 hPa SW 1.4 km/h 4.8 km/h 33% 0.0 mm 587 W/m2
16:18 22.6 °C 4.6 °C 1020.3 hPa Calm   1.6 km/h 31% 0.0 mm 608 W/m2
16:23 22.4 °C 4 °C 1020.0 hPa SSE 1.4 km/h 6.4 km/h 30% 0.0 mm 643 W/m2
16:28 22.6 °C 5.1 °C 1020.0 hPa NE 4.7 km/h 9.7 km/h 32% 0.0 mm 605 W/m2
16:33 22.8 °C 4.8 °C 1020.0 hPa South 1.4 km/h 6.4 km/h 31% 0.0 mm 612 W/m2
16:38 22.7 °C 3.7 °C 1020.0 hPa ENE 6.4 km/h 8 km/h 29% 0.0 mm 601 W/m2
16:43 22.7 °C 4.7 °C 1020.0 hPa SE 1.4 km/h 9.7 km/h 31% 0.0 mm 596 W/m2
16:48 22.8 °C 4.3 °C 1020.0 hPa Calm   1.6 km/h 30% 0.0 mm 599 W/m2
16:53 22.9 °C 4.4 °C 1019.6 hPa SE 1.4 km/h 4.8 km/h 30% 0.0 mm 584 W/m2
16:58 23 °C 4 °C 1019.6 hPa NNE 1.4 km/h 8 km/h 29% 0.0 mm 555 W/m2
17:03 22.9 °C 3.9 °C 1019.6 hPa ESE 1.4 km/h 11.3 km/h 29% 0.0 mm 568 W/m2
17:08 22.7 °C 3.7 °C 1019.6 hPa NNW 3.2 km/h 4.8 km/h 29% 0.0 mm 555 W/m2
17:13 22.7 °C 4.7 °C 1019.6 hPa South 1.4 km/h 3.2 km/h 31% 0.0 mm 533 W/m2
17:18 22.7 °C 4.2 °C 1019.6 hPa ESE 4.7 km/h 6.4 km/h 30% 0.0 mm 489 W/m2
17:23 22.8 °C 3.8 °C 1019.6 hPa WNW 3.2 km/h 3.2 km/h 29% 0.0 mm 526 W/m2
17:28 22.9 °C 5.3 °C 1019.6 hPa Calm   3.2 km/h 32% 0.0 mm 497 W/m2
17:33 23.1 °C 3.6 °C 1019.3 hPa SE 3.2 km/h 8 km/h 28% 0.0 mm 490 W/m2
17:38 23.1 °C 5.5 °C 1019.3 hPa Calm   11.3 km/h 32% 0.0 mm 473 W/m2
17:43 23.1 °C 5.5 °C 1019.3 hPa SW 1.4 km/h 3.2 km/h 32% 0.0 mm 462 W/m2
17:48 23.3 °C 4.7 °C 1019.3 hPa East 3.2 km/h 3.2 km/h 30% 0.0 mm 431 W/m2
17:53 23.4 °C 4.4 °C 1019.3 hPa East 1.4 km/h 3.2 km/h 29% 0.0 mm 434 W/m2
17:58 23.6 °C 5.5 °C 1019.3 hPa Calm     31% 0.0 mm 424 W/m2
18:04 23.6 °C 5 °C 1019.3 hPa ENE 4.7 km/h 4.8 km/h 30% 0.0 mm 408 W/m2
18:09 23.3 °C 4.7 °C 1019.3 hPa NE 4.7 km/h 4.8 km/h 30% 0.0 mm 181 W/m2
18:14 22.8 °C 4.3 °C 1019.3 hPa NNW 1.4 km/h 6.4 km/h 30% 0.0 mm 156 W/m2
18:19 22.5 °C 5.4 °C 1019.3 hPa ESE 4.7 km/h 4.8 km/h 33% 0.0 mm 197 W/m2
18:24 22.4 °C 5.8 °C 1019.0 hPa Calm   1.6 km/h 34% 0.0 mm 299 W/m2
18:29 22.6 °C 5.9 °C 1019.0 hPa Calm   3.2 km/h 34% 0.0 mm 285 W/m2
18:34 22.7 °C 6.9 °C 1019.0 hPa Calm     36% 0.0 mm 220 W/m2
18:39 22.7 °C 5.2 °C 1019.0 hPa Calm   1.6 km/h 32% 0.0 mm 134 W/m2
18:44 22.7 °C 7.6 °C 1019.0 hPa WNW 1.4 km/h 1.6 km/h 38% 0.0 mm 100 W/m2
18:49 22.2 °C 7.6 °C 1019.0 hPa South 1.4 km/h 1.6 km/h 39% 0.0 mm 97 W/m2
18:54 21.7 °C 8.9 °C 1019.0 hPa South 1.4 km/h 3.2 km/h 44% 0.0 mm 100 W/m2
18:59 21.2 °C 8.8 °C 1019.0 hPa Calm   1.6 km/h 45% 0.0 mm 105 W/m2
19:04 20.8 °C 8.1 °C 1019.0 hPa South 1.4 km/h 3.2 km/h 44% 0.0 mm 109 W/m2
19:09 20.4 °C 7.4 °C 1019.0 hPa Calm   3.2 km/h 43% 0.0 mm 113 W/m2
19:14 20.3 °C 6.3 °C 1019.0 hPa Calm   1.6 km/h 40% 0.0 mm 109 W/m2
19:19 20.2 °C 7.2 °C 1019.0 hPa Calm   3.2 km/h 43% 0.0 mm 100 W/m2
19:24 20.2 °C 5.8 °C 1019.0 hPa NW 1.4 km/h 1.6 km/h 39% 0.0 mm 97 W/m2
19:29 20.1 °C 7.5 °C 1019.0 hPa WNW 3.2 km/h 3.2 km/h 44% 0.0 mm 90 W/m2
19:34 20 °C 8 °C 1019.0 hPa WNW 1.4 km/h 3.2 km/h 46% 0.0 mm 76 W/m2
19:39 19.8 °C 8.2 °C 1018.6 hPa Calm     47% 0.0 mm 74 W/m2
19:44 19.7 °C 8.7 °C 1019.0 hPa Calm   1.6 km/h 49% 0.0 mm 77 W/m2
19:49 19.4 °C 7.8 °C 1019.0 hPa West 1.4 km/h 3.2 km/h 47% 0.0 mm 81 W/m2
19:54 19.2 °C 7.9 °C 1019.0 hPa West 1.4 km/h 3.2 km/h 48% 0.0 mm 76 W/m2
19:59 19.1 °C 7.8 °C 1019.0 hPa West 3.2 km/h 3.2 km/h 48% 0.0 mm 76 W/m2
20:04 18.9 °C 8 °C 1019.0 hPa Calm   1.6 km/h 49% 0.0 mm 69 W/m2
20:09 18.8 °C 7.9 °C 1018.6 hPa SW 1.4 km/h 3.2 km/h 49% 0.0 mm 54 W/m2
20:14 18.6 °C 7.4 °C 1018.6 hPa Calm     48% 0.0 mm 47 W/m2
20:19 18.4 °C 8.1 °C 1018.6 hPa Calm     51% 0.0 mm 40 W/m2
20:24 18.3 °C 7.7 °C 1018.6 hPa SW 1.4 km/h 1.6 km/h 50% 0.0 mm 35 W/m2
20:29 17.9 °C 7.6 °C 1018.6 hPa SW 1.4 km/h 1.6 km/h 51% 0.0 mm 30 W/m2
20:35 17.7 °C 7.4 °C 1018.6 hPa SW 1.4 km/h 3.2 km/h 51% 0.0 mm 25 W/m2
20:40 17.4 °C 7.4 °C 1018.6 hPa SW 1.4 km/h 1.6 km/h 52% 0.0 mm 19 W/m2
20:45 17.2 °C 7.3 °C 1018.6 hPa Calm   1.6 km/h 52% 0.0 mm 16 W/m2
20:50 17.1 °C 7.4 °C 1018.6 hPa Calm     53% 0.0 mm 9 W/m2
20:55 16.8 °C 7.2 °C 1019.0 hPa Calm     53% 0.0 mm 5 W/m2
21:00 16.6 °C 7 °C 1019.0 hPa Calm     53% 0.0 mm 0 W/m2
21:05 16.4 °C 7.1 °C 1019.0 hPa Calm     54% 0.0 mm 0 W/m2
21:10 16.2 °C 7.1 °C 1019.0 hPa Calm     55% 0.0 mm 0 W/m2
21:15 15.9 °C 6.9 °C 1019.0 hPa Calm     55% 0.0 mm 0 W/m2
21:20 15.8 °C 6.8 °C 1019.0 hPa Calm     55% 0.0 mm 0 W/m2
21:25 15.6 °C 6.9 °C 1019.0 hPa Calm     56% 0.0 mm 0 W/m2
21:30 15.3 °C 6.6 °C 1019.0 hPa Calm     56% 0.0 mm 0 W/m2
21:35 15.1 °C 6.4 °C 1019.0 hPa Calm     56% 0.0 mm 0 W/m2
21:40 14.9 °C 6.2 °C 1019.0 hPa Calm     56% 0.0 mm 0 W/m2
21:45 14.7 °C 6.5 °C 1019.0 hPa Calm     58% 0.0 mm 0 W/m2
21:50 14.6 °C 6.2 °C 1019.0 hPa Calm     57% 0.0 mm 0 W/m2
21:55 14.4 °C 6.5 °C 1019.0 hPa Calm     59% 0.0 mm 0 W/m2
22:00 14.3 °C 6.4 °C 1019.0 hPa Calm     59% 0.0 mm 0 W/m2
22:05 14.2 °C 5.8 °C 1019.0 hPa Calm     57% 0.0 mm 0 W/m2
22:10 14.1 °C 6.2 °C 1019.0 hPa Calm     59% 0.0 mm 0 W/m2
22:15 13.9 °C 6.3 °C 1019.0 hPa Calm     60% 0.0 mm 0 W/m2
22:20 13.8 °C 6.2 °C 1019.0 hPa Calm     60% 0.0 mm 0 W/m2
22:25 13.7 °C 5.6 °C 1019.0 hPa Calm     58% 0.0 mm 0 W/m2
22:30 13.7 °C 6.1 °C 1019.0 hPa Calm     60% 0.0 mm 0 W/m2
22:35 13.6 °C 6 °C 1019.0 hPa Calm     60% 0.0 mm 0 W/m2
22:40 13.6 °C 6 °C 1019.0 hPa Calm     60% 0.0 mm 0 W/m2
22:45 13.5 °C 6.1 °C 1019.0 hPa Calm     61% 0.0 mm 0 W/m2
22:50 13.4 °C 6 °C 1019.0 hPa Calm     61% 0.0 mm 0 W/m2
22:55 13.2 °C 6.1 °C 1019.0 hPa Calm     62% 0.0 mm 0 W/m2
23:00 13.1 °C 6.2 °C 1019.0 hPa Calm     63% 0.0 mm 0 W/m2
23:05 12.9 °C 6.3 °C 1019.0 hPa Calm     64% 0.0 mm 0 W/m2
23:10 12.8 °C 6.2 °C 1019.0 hPa Calm     64% 0.0 mm 0 W/m2
23:15 12.7 °C 6.1 °C 1019.0 hPa Calm     64% 0.0 mm 0 W/m2
23:20 12.6 °C 6 °C 1019.0 hPa Calm     64% 0.0 mm 0 W/m2
23:25 12.3 °C 5.7 °C 1019.0 hPa Calm     64% 0.0 mm 0 W/m2
23:31 12.2 °C 5.6 °C 1018.6 hPa Calm     64% 0.0 mm 0 W/m2
23:36 12.1 °C 5.5 °C 1018.6 hPa Calm     64% 0.0 mm 0 W/m2
23:41 11.9 °C 5.5 °C 1018.6 hPa Calm     65% 0.0 mm 0 W/m2
23:46 11.7 °C 5.3 °C 1018.6 hPa Calm     65% 0.0 mm 0 W/m2
23:51 11.6 °C 5.5 °C 1018.6 hPa Calm     66% 0.0 mm 0 W/m2
23:56 11.5 °C 5.6 °C 1018.6 hPa Calm     67% 0.0 mm 0 W/m2
Juneau County Weather
Compliments of Weather Underground - 2 mb